Česky Dansk Deutsch English Español Suomi Français Magyar Italiano Nederlands norsk Polski Português svenska Türkçe

 

Het Weer

Passo Fundo (Brazilië)

21:00, 18 augustus 2016 (GMT)

NWNNE
WE
SWSSE
Home            
Passo Fundo Santa Maria Aero-Porto Porto Alegre Porto Alegre Aero-Porto Iguazu Aerodrome Encarnacion Posadas Aero. Foz Do Iguacu Aeroporto Bage Aeroporto Florianopolis Aeroporto Aeropuerto Guarany Pelotas Rivera Curitiba Curitiba Aeroporto Artigas Uruguaiana Aeroporto Paso De Los Libres Aerodrome Melo Paranagua Tacuarembo Maringa Monte Caseros Aerodrome

Om een weerknop op uw website of weblog te plaatsen, copieer onderstaande code en plak die in uw pagina. In het eerste vakje staat HTML-code, in het tweede vakje UBB-code.


Add to Google

Details

Wind speed:3 bf, 10 kn, 5.1 m/s, 11.5 miles/h, 18.5 km/h
Wind direction:SSE, 150°
Visibility:Greater than 10000 m, 10 km, 32800 ft, 6.2 miles
Clouds:CAVOC
Temperature:17°C, 63°F
Dew-point:11°C, 52°F
Atmospheric pressure:1018 hPa, 763.6 mmHg, 30.06 inHg, 1.005 atm
Relative humidity:67.7 %
METAR:SBPF 182100Z 15010KT CAVOK 17/11 Q1018

Snelkoppelingen

Actuele weersinformatie van de hele wereld. Voeg locaties toe met het plus (+) symbool. Deze snelkoppelingen kunnen worden toegevoegd aan Google.

Lid van de Technetium groep

website free tracking
StatCounter NetStat W3C Validator

14-04-2021 07:18:39
astro.technetium.be money.technetium.be phote.technetium.be tafeltennistafel.technetium.be www.ligfiets.net